sensor_id;sensor_type;location;lat;lon;timestamp;pressure;altitude;pressure_sealevel;temperature;humidity
50852;BME280;43953;45.508;-122.806;2024-02-23T00:00:13;101690.13;;;24.51;38.27
50852;BME280;43953;45.508;-122.806;2024-02-23T00:00:45;101682.97;;;24.50;38.35
50852;BME280;43953;45.508;-122.806;2024-02-23T00:01:17;101687.94;;;24.48;38.18
50852;BME280;43953;45.508;-122.806;2024-02-23T00:01:48;101685.72;;;24.50;38.23
50852;BME280;43953;45.508;-122.806;2024-02-23T00:02:20;101694.00;;;24.50;38.47
50852;BME280;43953;45.508;-122.806;2024-02-23T00:02:52;101684.09;;;24.49;38.28
50852;BME280;43953;45.508;-122.806;2024-02-23T00:03:25;101685.72;;;24.50;38.21
50852;BME280;43953;45.508;-122.806;2024-02-23T00:03:57;101688.47;;;24.50;38.22
50852;BME280;43953;45.508;-122.806;2024-02-23T00:04:29;101690.41;;;24.50;38.24
50852;BME280;43953;45.508;-122.806;2024-02-23T00:05:01;101697.56;;;24.51;38.23
50852;BME280;43953;45.508;-122.806;2024-02-23T00:05:32;101687.38;;;24.51;38.17
50852;BME280;43953;45.508;-122.806;2024-02-23T00:06:04;101687.38;;;24.51;38.12
50852;BME280;43953;45.508;-122.806;2024-02-23T00:06:36;101685.72;;;24.50;38.07
50852;BME280;43953;45.508;-122.806;2024-02-23T00:07:07;101687.38;;;24.51;38.22
50852;BME280;43953;45.508;-122.806;2024-02-23T00:07:39;101692.88;;;24.51;38.19
50852;BME280;43953;45.508;-122.806;2024-02-23T00:08:11;101693.69;;;24.52;38.27
50852;BME280;43953;45.508;-122.806;2024-02-23T00:08:43;101694.53;;;24.52;38.25
50852;BME280;43953;45.508;-122.806;2024-02-23T00:09:15;101692.88;;;24.51;38.27
50852;BME280;43953;45.508;-122.806;2024-02-23T00:09:46;101693.69;;;24.52;38.26
50852;BME280;43953;45.508;-122.806;2024-02-23T00:10:18;101687.38;;;24.51;38.19
50852;BME280;43953;45.508;-122.806;2024-02-23T00:10:50;101687.38;;;24.51;38.19
50852;BME280;43953;45.508;-122.806;2024-02-23T00:11:21;101683.53;;;24.52;38.40
50852;BME280;43953;45.508;-122.806;2024-02-23T00:11:53;101687.38;;;24.51;38.07
50852;BME280;43953;45.508;-122.806;2024-02-23T00:12:25;101698.38;;;24.51;38.22
50852;BME280;43953;45.508;-122.806;2024-02-23T00:12:57;101691.25;;;24.50;38.27
50852;BME280;43953;45.508;-122.806;2024-02-23T00:13:28;101691.25;;;24.50;38.10
50852;BME280;43953;45.508;-122.806;2024-02-23T00:14:00;101694.81;;;24.51;38.14
50852;BME280;43953;45.508;-122.806;2024-02-23T00:14:32;101692.06;;;24.51;38.19
50852;BME280;43953;45.508;-122.806;2024-02-23T00:15:07;101691.25;;;24.50;38.36
50852;BME280;43953;45.508;-122.806;2024-02-23T00:15:39;101699.75;;;24.49;38.18
50852;BME280;43953;45.508;-122.806;2024-02-23T00:16:10;101688.47;;;24.50;38.14
50852;BME280;43953;45.508;-122.806;2024-02-23T00:16:42;101690.41;;;24.50;38.27
50852;BME280;43953;45.508;-122.806;2024-02-23T00:17:14;101702.25;;;24.50;38.21
50852;BME280;43953;45.508;-122.806;2024-02-23T00:17:46;101691.25;;;24.50;38.28
50852;BME280;43953;45.508;-122.806;2024-02-23T00:18:18;101699.50;;;24.50;38.35
50852;BME280;43953;45.508;-122.806;2024-02-23T00:18:50;101702.25;;;24.50;38.35
50852;BME280;43953;45.508;-122.806;2024-02-23T00:19:21;101699.50;;;24.50;38.14
50852;BME280;43953;45.508;-122.806;2024-02-23T00:19:55;101701.13;;;24.51;38.33
50852;BME280;43953;45.508;-122.806;2024-02-23T00:20:26;101700.31;;;24.51;38.21
50852;BME280;43953;45.508;-122.806;2024-02-23T00:21:00;101708.56;;;24.51;38.43
50852;BME280;43953;45.508;-122.806;2024-02-23T00:21:32;101700.31;;;24.51;38.32
50852;BME280;43953;45.508;-122.806;2024-02-23T00:22:04;101702.25;;;24.50;38.23
50852;BME280;43953;45.508;-122.806;2024-02-23T00:22:35;101702.25;;;24.50;38.17
50852;BME280;43953;45.508;-122.806;2024-02-23T00:23:07;101680.22;;;24.40;38.19
50852;BME280;43953;45.508;-122.806;2024-02-23T00:23:39;101709.41;;;24.51;38.56
50852;BME280;43953;45.508;-122.806;2024-02-23T00:24:10;101706.63;;;24.51;38.30
50852;BME280;43953;45.508;-122.806;2024-02-23T00:24:42;101700.31;;;24.51;38.21
50852;BME280;43953;45.508;-122.806;2024-02-23T00:25:14;101712.16;;;24.51;38.29
50852;BME280;43953;45.508;-122.806;2024-02-23T00:25:46;101706.63;;;24.51;38.14
50852;BME280;43953;45.508;-122.806;2024-02-23T00:26:17;101708.56;;;24.51;38.29
50852;BME280;43953;45.508;-122.806;2024-02-23T00:26:49;101705.81;;;24.51;38.24
50852;BME280;43953;45.508;-122.806;2024-02-23T00:27:22;101707.47;;;24.52;38.35
50852;BME280;43953;45.508;-122.806;2024-02-23T00:27:54;101705.56;;;24.52;38.25
50852;BME280;43953;45.508;-122.806;2024-02-23T00:28:26;101708.56;;;24.51;38.09
50852;BME280;43953;45.508;-122.806;2024-02-23T00:28:57;101705.56;;;24.52;38.26
50852;BME280;43953;45.508;-122.806;2024-02-23T00:29:29;101707.47;;;24.52;38.24
50852;BME280;43953;45.508;-122.806;2024-02-23T00:30:01;101702.25;;;24.50;38.45
50852;BME280;43953;45.508;-122.806;2024-02-23T00:30:33;101699.50;;;24.50;38.49
50852;BME280;43953;45.508;-122.806;2024-02-23T00:31:04;101707.75;;;24.50;38.36
50852;BME280;43953;45.508;-122.806;2024-02-23T00:31:38;101704.19;;;24.50;38.58
50852;BME280;43953;45.508;-122.806;2024-02-23T00:32:12;101702.25;;;24.50;38.28
50852;BME280;43953;45.508;-122.806;2024-02-23T00:32:43;101705.00;;;24.50;38.41
50852;BME280;43953;45.508;-122.806;2024-02-23T00:33:15;101698.69;;;24.50;38.30
50852;BME280;43953;45.508;-122.806;2024-02-23T00:33:47;101704.19;;;24.50;38.41
50852;BME280;43953;45.508;-122.806;2024-02-23T00:34:19;101694.81;;;24.46;38.35
50852;BME280;43953;45.508;-122.806;2024-02-23T00:34:50;101696.47;;;24.47;38.36
50852;BME280;43953;45.508;-122.806;2024-02-23T00:35:22;101705.56;;;24.47;38.36
50852;BME280;43953;45.508;-122.806;2024-02-23T00:35:54;101702.81;;;24.47;38.57
50852;BME280;43953;45.508;-122.806;2024-02-23T00:36:26;101702.81;;;24.47;38.25
50852;BME280;43953;45.508;-122.806;2024-02-23T00:36:58;101697.31;;;24.47;38.48
50852;BME280;43953;45.508;-122.806;2024-02-23T00:37:29;101698.41;;;24.46;38.58
50852;BME280;43953;45.508;-122.806;2024-02-23T00:38:06;101701.16;;;24.46;38.42
50852;BME280;43953;45.508;-122.806;2024-02-23T00:38:38;101701.16;;;24.46;38.33
50852;BME280;43953;45.508;-122.806;2024-02-23T00:39:10;101701.16;;;24.46;38.36
50852;BME280;43953;45.508;-122.806;2024-02-23T00:39:42;101638.72;;;24.01;38.43
50852;BME280;43953;45.508;-122.806;2024-02-23T00:40:14;101701.16;;;24.46;38.39
50852;BME280;43953;45.508;-122.806;2024-02-23T00:40:47;101699.50;;;24.45;38.37
50852;BME280;43953;45.508;-122.806;2024-02-23T00:41:18;101706.66;;;24.46;38.51
50852;BME280;43953;45.508;-122.806;2024-02-23T00:41:50;101703.06;;;24.46;38.33
50852;BME280;43953;45.508;-122.806;2024-02-23T00:42:22;101687.13;;;24.38;38.60
50852;BME280;43953;45.508;-122.806;2024-02-23T00:42:53;101698.69;;;24.45;38.54
50852;BME280;43953;45.508;-122.806;2024-02-23T00:43:25;101697.03;;;24.44;38.40
50852;BME280;43953;45.508;-122.806;2024-02-23T00:43:57;101708.06;;;24.44;38.40
50852;BME280;43953;45.508;-122.806;2024-02-23T00:44:29;101670.06;;;24.20;38.44
50852;BME280;43953;45.508;-122.806;2024-02-23T00:45:01;101704.72;;;24.42;38.57
50852;BME280;43953;45.508;-122.806;2024-02-23T00:45:32;101705.56;;;24.42;38.54
50852;BME280;43953;45.508;-122.806;2024-02-23T00:46:04;101708.31;;;24.42;38.53
50852;BME280;43953;45.508;-122.806;2024-02-23T00:46:36;101708.31;;;24.42;38.62
50852;BME280;43953;45.508;-122.806;2024-02-23T00:47:08;101711.06;;;24.42;38.61
50852;BME280;43953;45.508;-122.806;2024-02-23T00:47:40;101701.97;;;24.42;38.53
50852;BME280;43953;45.508;-122.806;2024-02-23T00:48:12;101712.75;;;24.43;38.79
50852;BME280;43953;45.508;-122.806;2024-02-23T00:48:45;101714.38;;;24.44;38.66
50852;BME280;43953;45.508;-122.806;2024-02-23T00:49:16;101703.06;;;24.46;38.90
50852;BME280;43953;45.508;-122.806;2024-02-23T00:49:48;101702.00;;;24.47;38.70
50852;BME280;43953;45.508;-122.806;2024-02-23T00:50:20;101709.69;;;24.50;38.90
50852;BME280;43953;45.508;-122.806;2024-02-23T00:50:52;101703.88;;;24.51;38.77
50852;BME280;43953;45.508;-122.806;2024-02-23T00:51:23;101706.38;;;24.53;38.75
50852;BME280;43953;45.508;-122.806;2024-02-23T00:51:55;101710.50;;;24.56;38.73
50852;BME280;43953;45.508;-122.806;2024-02-23T00:52:27;101691.53;;;24.44;38.56
50852;BME280;43953;45.508;-122.806;2024-02-23T00:52:58;101708.28;;;24.58;38.69
50852;BME280;43953;45.508;-122.806;2024-02-23T00:53:31;101709.94;;;24.59;38.52
50852;BME280;43953;45.508;-122.806;2024-02-23T00:54:03;101711.59;;;24.60;38.44
50852;BME280;43953;45.508;-122.806;2024-02-23T00:54:35;101709.38;;;24.62;38.61
50852;BME280;43953;45.508;-122.806;2024-02-23T00:55:07;101706.91;;;24.60;38.58
50852;BME280;43953;45.508;-122.806;2024-02-23T00:55:39;101712.13;;;24.62;38.65
50852;BME280;43953;45.508;-122.806;2024-02-23T00:56:11;101710.47;;;24.61;38.59
50852;BME280;43953;45.508;-122.806;2024-02-23T00:56:44;101706.91;;;24.60;38.46
50852;BME280;43953;45.508;-122.806;2024-02-23T00:57:16;101710.47;;;24.61;38.45
50852;BME280;43953;45.508;-122.806;2024-02-23T00:57:50;101710.47;;;24.61;38.63
50852;BME280;43953;45.508;-122.806;2024-02-23T00:58:21;101705.25;;;24.59;38.58
50852;BME280;43953;45.508;-122.806;2024-02-23T00:58:53;101704.44;;;24.59;38.56
50852;BME280;43953;45.508;-122.806;2024-02-23T00:59:25;101704.44;;;24.59;38.48
50852;BME280;43953;45.508;-122.806;2024-02-23T00:59:57;101709.94;;;24.59;38.59
50852;BME280;43953;45.508;-122.806;2024-02-23T01:00:29;101711.88;;;24.58;38.66
50852;BME280;43953;45.508;-122.806;2024-02-23T01:01:01;101708.28;;;24.58;38.60
50852;BME280;43953;45.508;-122.806;2024-02-23T01:01:33;101709.13;;;24.58;38.44
50852;BME280;43953;45.508;-122.806;2024-02-23T01:02:04;101709.94;;;24.59;38.62
50852;BME280;43953;45.508;-122.806;2024-02-23T01:02:37;101708.28;;;24.58;38.42
50852;BME280;43953;45.508;-122.806;2024-02-23T01:03:09;101700.88;;;24.58;38.60
50852;BME280;43953;45.508;-122.806;2024-02-23T01:03:41;101706.38;;;24.58;38.56
50852;BME280;43953;45.508;-122.806;2024-02-23T01:04:12;101685.47;;;24.47;38.51
50852;BME280;43953;45.508;-122.806;2024-02-23T01:04:44;101704.69;;;24.57;38.38
50852;BME280;43953;45.508;-122.806;2024-02-23T01:05:16;101708.28;;;24.58;38.42
50852;BME280;43953;45.508;-122.806;2024-02-23T01:05:48;101701.13;;;24.57;38.13
50852;BME280;43953;45.508;-122.806;2024-02-23T01:06:20;101702.25;;;24.56;38.32
50852;BME280;43953;45.508;-122.806;2024-02-23T01:06:51;101697.00;;;24.54;37.97
50852;BME280;43953;45.508;-122.806;2024-02-23T01:07:24;101708.00;;;24.54;38.00
50852;BME280;43953;45.508;-122.806;2024-02-23T01:07:55;101702.50;;;24.54;37.83
50852;BME280;43953;45.508;-122.806;2024-02-23T01:08:27;101701.69;;;24.54;37.56
50852;BME280;43953;45.508;-122.806;2024-02-23T01:08:59;101700.06;;;24.52;37.53
50852;BME280;43953;45.508;-122.806;2024-02-23T01:09:31;101680.22;;;24.40;37.60
50852;BME280;43953;45.508;-122.806;2024-02-23T01:10:03;101695.63;;;24.51;37.46
50852;BME280;43953;45.508;-122.806;2024-02-23T01:10:35;101699.50;;;24.50;37.52
50852;BME280;43953;45.508;-122.806;2024-02-23T01:11:06;101695.09;;;24.49;37.33
50852;BME280;43953;45.508;-122.806;2024-02-23T01:11:38;101691.25;;;24.50;37.51
50852;BME280;43953;45.508;-122.806;2024-02-23T01:12:10;101690.69;;;24.48;37.45
50852;BME280;43953;45.508;-122.806;2024-02-23T01:12:42;101698.94;;;24.48;37.55
50852;BME280;43953;45.508;-122.806;2024-02-23T01:13:13;101697.84;;;24.49;37.47
50852;BME280;43953;45.508;-122.806;2024-02-23T01:13:45;101698.94;;;24.48;37.62
50852;BME280;43953;45.508;-122.806;2024-02-23T01:14:17;101696.47;;;24.47;37.57
50852;BME280;43953;45.508;-122.806;2024-02-23T01:14:49;101698.13;;;24.48;37.79
50852;BME280;43953;45.508;-122.806;2024-02-23T01:15:20;101692.91;;;24.46;37.52
50852;BME280;43953;45.508;-122.806;2024-02-23T01:15:52;101696.47;;;24.47;37.75
50852;BME280;43953;45.508;-122.806;2024-02-23T01:16:25;101701.16;;;24.46;37.73
50852;BME280;43953;45.508;-122.806;2024-02-23T01:16:57;101682.97;;;24.35;37.64
50852;BME280;43953;45.508;-122.806;2024-02-23T01:17:28;101699.50;;;24.45;37.66
50852;BME280;43953;45.508;-122.806;2024-02-23T01:18:00;101700.31;;;24.46;37.90
50852;BME280;43953;45.508;-122.806;2024-02-23T01:18:32;101705.00;;;24.45;37.78
50852;BME280;43953;45.508;-122.806;2024-02-23T01:19:04;101708.56;;;24.46;37.82
50852;BME280;43953;45.508;-122.806;2024-02-23T01:19:35;101702.25;;;24.45;37.82
50852;BME280;43953;45.508;-122.806;2024-02-23T01:20:07;101704.19;;;24.45;37.89
50852;BME280;43953;45.508;-122.806;2024-02-23T01:20:39;101709.69;;;24.45;37.71
50852;BME280;43953;45.508;-122.806;2024-02-23T01:21:11;101708.88;;;24.44;37.82
50852;BME280;43953;45.508;-122.806;2024-02-23T01:21:43;101708.88;;;24.44;37.96
50852;BME280;43953;45.508;-122.806;2024-02-23T01:22:14;101706.13;;;24.44;37.72
50852;BME280;43953;45.508;-122.806;2024-02-23T01:22:46;101707.22;;;24.43;37.69
50852;BME280;43953;45.508;-122.806;2024-02-23T01:23:18;101703.38;;;24.44;37.77
50852;BME280;43953;45.508;-122.806;2024-02-23T01:23:50;101709.97;;;24.43;37.76
50852;BME280;43953;45.508;-122.806;2024-02-23T01:24:22;101702.53;;;24.44;37.96
50852;BME280;43953;45.508;-122.806;2024-02-23T01:24:53;101705.56;;;24.42;37.77
50852;BME280;43953;45.508;-122.806;2024-02-23T01:25:25;101701.72;;;24.43;37.88
50852;BME280;43953;45.508;-122.806;2024-02-23T01:25:57;101707.22;;;24.43;37.85
50852;BME280;43953;45.508;-122.806;2024-02-23T01:26:30;101705.28;;;24.44;37.72
50852;BME280;43953;45.508;-122.806;2024-02-23T01:27:02;101692.88;;;24.36;37.88
50852;BME280;43953;45.508;-122.806;2024-02-23T01:27:34;101706.38;;;24.43;37.87
50852;BME280;43953;45.508;-122.806;2024-02-23T01:28:06;101702.81;;;24.42;37.69
50852;BME280;43953;45.508;-122.806;2024-02-23T01:28:38;101706.38;;;24.43;37.69
50852;BME280;43953;45.508;-122.806;2024-02-23T01:29:09;101700.06;;;24.42;37.78
50852;BME280;43953;45.508;-122.806;2024-02-23T01:29:41;101703.88;;;24.41;37.81
50852;BME280;43953;45.508;-122.806;2024-02-23T01:30:13;101703.88;;;24.41;37.81
50852;BME280;43953;45.508;-122.806;2024-02-23T01:30:45;101703.88;;;24.41;37.79
50852;BME280;43953;45.508;-122.806;2024-02-23T01:31:17;101706.63;;;24.41;37.82
50852;BME280;43953;45.508;-122.806;2024-02-23T01:31:49;101703.06;;;24.41;37.93
50852;BME280;43953;45.508;-122.806;2024-02-23T01:32:21;101702.25;;;24.40;37.74
50852;BME280;43953;45.508;-122.806;2024-02-23T01:32:53;101702.25;;;24.40;37.67
50852;BME280;43953;45.508;-122.806;2024-02-23T01:33:25;101687.66;;;24.35;37.79
50852;BME280;43953;45.508;-122.806;2024-02-23T01:33:56;101705.00;;;24.40;37.77
50852;BME280;43953;45.508;-122.806;2024-02-23T01:34:28;101698.94;;;24.38;37.87
50852;BME280;43953;45.508;-122.806;2024-02-23T01:35:00;101697.81;;;24.39;37.87
50852;BME280;43953;45.508;-122.806;2024-02-23T01:35:31;101694.25;;;24.39;37.75
50852;BME280;43953;45.508;-122.806;2024-02-23T01:36:05;101700.59;;;24.39;37.83
50852;BME280;43953;45.508;-122.806;2024-02-23T01:36:37;101700.59;;;24.39;37.71
50852;BME280;43953;45.508;-122.806;2024-02-23T01:37:10;101699.75;;;24.39;37.78
50852;BME280;43953;45.508;-122.806;2024-02-23T01:37:42;101698.94;;;24.38;37.91
50852;BME280;43953;45.508;-122.806;2024-02-23T01:38:15;101701.41;;;24.40;37.78
50852;BME280;43953;45.508;-122.806;2024-02-23T01:38:51;101693.44;;;24.38;37.71
50852;BME280;43953;45.508;-122.806;2024-02-23T01:39:23;101694.25;;;24.39;37.84
50852;BME280;43953;45.508;-122.806;2024-02-23T01:39:55;101696.19;;;24.38;37.69
50852;BME280;43953;45.508;-122.806;2024-02-23T01:40:26;101687.13;;;24.38;37.69
50852;BME280;43953;45.508;-122.806;2024-02-23T01:40:59;101698.13;;;24.38;37.86
50852;BME280;43953;45.508;-122.806;2024-02-23T01:41:30;101702.78;;;24.37;37.88
50852;BME280;43953;45.508;-122.806;2024-02-23T01:42:03;101685.44;;;24.37;37.91
50852;BME280;43953;45.508;-122.806;2024-02-23T01:42:35;101690.94;;;24.37;37.91
50852;BME280;43953;45.508;-122.806;2024-02-23T01:43:07;101690.94;;;24.37;37.79
50852;BME280;43953;45.508;-122.806;2024-02-23T01:43:39;101683.50;;;24.37;37.80
50852;BME280;43953;45.508;-122.806;2024-02-23T01:44:11;101687.38;;;24.36;37.73
50852;BME280;43953;45.508;-122.806;2024-02-23T01:44:43;101687.38;;;24.36;37.83
50852;BME280;43953;45.508;-122.806;2024-02-23T01:45:14;101694.00;;;24.35;37.86
50852;BME280;43953;45.508;-122.806;2024-02-23T01:45:46;101684.91;;;24.35;37.92
50852;BME280;43953;45.508;-122.806;2024-02-23T01:46:18;101684.63;;;24.36;37.78
50852;BME280;43953;45.508;-122.806;2024-02-23T01:46:50;101687.94;;;24.38;37.82
50852;BME280;43953;45.508;-122.806;2024-02-23T01:47:25;101690.38;;;24.40;37.88
50852;BME280;43953;45.508;-122.806;2024-02-23T01:47:59;101691.78;;;24.42;38.05
50852;BME280;43953;45.508;-122.806;2024-02-23T01:48:32;101696.22;;;24.43;38.00
50852;BME280;43953;45.508;-122.806;2024-02-23T01:49:05;101688.50;;;24.45;37.97
50852;BME280;43953;45.508;-122.806;2024-02-23T01:49:38;101693.44;;;24.48;38.01
50852;BME280;43953;45.508;-122.806;2024-02-23T01:50:10;101697.84;;;24.49;38.00
50852;BME280;43953;45.508;-122.806;2024-02-23T01:50:44;101696.44;;;24.52;37.84
50852;BME280;43953;45.508;-122.806;2024-02-23T01:51:16;101696.19;;;24.54;37.91
50852;BME280;43953;45.508;-122.806;2024-02-23T01:51:49;101701.44;;;24.55;37.71
50852;BME280;43953;45.508;-122.806;2024-02-23T01:52:22;101699.50;;;24.56;37.93
50852;BME280;43953;45.508;-122.806;2024-02-23T01:52:56;101701.13;;;24.57;37.84
50852;BME280;43953;45.508;-122.806;2024-02-23T01:53:28;101697.25;;;24.58;37.77
50852;BME280;43953;45.508;-122.806;2024-02-23T01:54:00;101701.69;;;24.59;37.87
50852;BME280;43953;45.508;-122.806;2024-02-23T01:54:32;101707.19;;;24.59;37.59
50852;BME280;43953;45.508;-122.806;2024-02-23T01:55:05;101699.75;;;24.59;37.84
50852;BME280;43953;45.508;-122.806;2024-02-23T01:55:39;101706.91;;;24.60;37.90
50852;BME280;43953;45.508;-122.806;2024-02-23T01:56:12;101705.81;;;24.61;37.79
50852;BME280;43953;45.508;-122.806;2024-02-23T01:56:49;101697.56;;;24.61;37.90
50852;BME280;43953;45.508;-122.806;2024-02-23T01:57:21;101704.97;;;24.61;37.74
50852;BME280;43953;45.508;-122.806;2024-02-23T01:57:54;101699.47;;;24.61;37.76
50852;BME280;43953;45.508;-122.806;2024-02-23T01:58:27;101693.13;;;24.60;37.74
50852;BME280;43953;45.508;-122.806;2024-02-23T01:59:04;101641.19;;;24.23;37.55
50852;BME280;43953;45.508;-122.806;2024-02-23T01:59:38;101695.88;;;24.60;37.82
50852;BME280;43953;45.508;-122.806;2024-02-23T02:00:11;101699.47;;;24.61;37.67
50852;BME280;43953;45.508;-122.806;2024-02-23T02:00:46;101697.81;;;24.60;37.63
50852;BME280;43953;45.508;-122.806;2024-02-23T02:01:18;101694.25;;;24.59;37.55
50852;BME280;43953;45.508;-122.806;2024-02-23T02:01:50;101698.94;;;24.59;37.84
50852;BME280;43953;45.508;-122.806;2024-02-23T02:02:22;101698.13;;;24.58;37.77
50852;BME280;43953;45.508;-122.806;2024-02-23T02:02:53;101700.00;;;24.58;37.70
50852;BME280;43953;45.508;-122.806;2024-02-23T02:03:25;101696.44;;;24.57;37.77
50852;BME280;43953;45.508;-122.806;2024-02-23T02:03:58;101694.81;;;24.56;37.80
50852;BME280;43953;45.508;-122.806;2024-02-23T02:04:30;101699.50;;;24.56;37.92
50852;BME280;43953;45.508;-122.806;2024-02-23T02:05:02;101701.44;;;24.55;37.74
50852;BME280;43953;45.508;-122.806;2024-02-23T02:05:38;101702.25;;;24.56;37.79
50852;BME280;43953;45.508;-122.806;2024-02-23T02:06:11;101704.19;;;24.55;37.89
50852;BME280;43953;45.508;-122.806;2024-02-23T02:06:45;101697.81;;;24.55;37.72
50852;BME280;43953;45.508;-122.806;2024-02-23T02:07:17;101701.69;;;24.54;37.74
50852;BME280;43953;45.508;-122.806;2024-02-23T02:07:51;101702.50;;;24.54;38.01
50852;BME280;43953;45.508;-122.806;2024-02-23T02:08:26;101695.38;;;24.53;37.87
50852;BME280;43953;45.508;-122.806;2024-02-23T02:08:58;101703.63;;;24.53;37.75
50852;BME280;43953;45.508;-122.806;2024-02-23T02:09:30;101696.75;;;24.50;37.79
50852;BME280;43953;45.508;-122.806;2024-02-23T02:10:02;101700.06;;;24.52;37.80
50852;BME280;43953;45.508;-122.806;2024-02-23T02:10:35;101698.38;;;24.51;37.87
50852;BME280;43953;45.508;-122.806;2024-02-23T02:11:07;101696.44;;;24.52;37.88
50852;BME280;43953;45.508;-122.806;2024-02-23T02:11:48;101702.81;;;24.52;37.98
50852;BME280;43953;45.508;-122.806;2024-02-23T02:12:27;101699.19;;;24.52;37.78
50852;BME280;43953;45.508;-122.806;2024-02-23T02:13:03;101696.44;;;24.52;37.93
50852;BME280;43953;45.508;-122.806;2024-02-23T02:13:35;101701.94;;;24.52;37.98
50852;BME280;43953;45.508;-122.806;2024-02-23T02:14:07;101692.88;;;24.51;37.65
50852;BME280;43953;45.508;-122.806;2024-02-23T02:14:39;101703.88;;;24.51;37.79
50852;BME280;43953;45.508;-122.806;2024-02-23T02:15:10;101700.06;;;24.52;37.98
50852;BME280;43953;45.508;-122.806;2024-02-23T02:15:42;101699.50;;;24.50;37.92
50852;BME280;43953;45.508;-122.806;2024-02-23T02:16:15;101696.75;;;24.50;37.95
50852;BME280;43953;45.508;-122.806;2024-02-23T02:16:46;101703.88;;;24.51;37.79
50852;BME280;43953;45.508;-122.806;2024-02-23T02:17:18;101695.91;;;24.50;37.70
50852;BME280;43953;45.508;-122.806;2024-02-23T02:17:50;101693.44;;;24.48;37.95
50852;BME280;43953;45.508;-122.806;2024-02-23T02:18:22;101697.84;;;24.49;37.76
50852;BME280;43953;45.508;-122.806;2024-02-23T02:18:53;101698.94;;;24.48;37.86
50852;BME280;43953;45.508;-122.806;2024-02-23T02:19:25;101700.88;;;24.48;37.89
50852;BME280;43953;45.508;-122.806;2024-02-23T02:19:59;101693.72;;;24.47;37.90
50852;BME280;43953;45.508;-122.806;2024-02-23T02:20:36;101700.88;;;24.48;37.86
50852;BME280;43953;45.508;-122.806;2024-02-23T02:21:08;101692.63;;;24.48;38.09
50852;BME280;43953;45.508;-122.806;2024-02-23T02:21:41;101694.53;;;24.47;37.95
50852;BME280;43953;45.508;-122.806;2024-02-23T02:22:13;101696.47;;;24.47;37.97
50852;BME280;43953;45.508;-122.806;2024-02-23T02:22:44;101699.22;;;24.47;38.07
50852;BME280;43953;45.508;-122.806;2024-02-23T02:23:16;101697.56;;;24.46;38.05
50852;BME280;43953;45.508;-122.806;2024-02-23T02:23:48;101694.81;;;24.46;37.97
50852;BME280;43953;45.508;-122.806;2024-02-23T02:24:20;101695.66;;;24.46;37.95
50852;BME280;43953;45.508;-122.806;2024-02-23T02:24:52;101694.00;;;24.45;37.96
50852;BME280;43953;45.508;-122.806;2024-02-23T02:25:24;101691.53;;;24.44;38.03
50852;BME280;43953;45.508;-122.806;2024-02-23T02:25:56;101696.22;;;24.43;38.47
50852;BME280;43953;45.508;-122.806;2024-02-23T02:26:29;101692.63;;;24.43;38.13
50852;BME280;43953;45.508;-122.806;2024-02-23T02:27:01;101689.03;;;24.42;38.10
50852;BME280;43953;45.508;-122.806;2024-02-23T02:27:32;101694.56;;;24.42;38.28
50852;BME280;43953;45.508;-122.806;2024-02-23T02:28:06;101687.38;;;24.41;38.04
50852;BME280;43953;45.508;-122.806;2024-02-23T02:28:39;101692.88;;;24.41;38.33
50852;BME280;43953;45.508;-122.806;2024-02-23T02:29:10;101696.75;;;24.40;38.37
50852;BME280;43953;45.508;-122.806;2024-02-23T02:29:42;101679.13;;;24.36;38.10
50852;BME280;43953;45.508;-122.806;2024-02-23T02:30:14;101694.00;;;24.40;38.18
50852;BME280;43953;45.508;-122.806;2024-02-23T02:30:46;101703.34;;;24.39;38.11
50852;BME280;43953;45.508;-122.806;2024-02-23T02:31:18;101699.50;;;24.40;38.28
50852;BME280;43953;45.508;-122.806;2024-02-23T02:31:49;101688.50;;;24.40;38.44
50852;BME280;43953;45.508;-122.806;2024-02-23T02:32:21;101692.31;;;24.39;38.28
50852;BME280;43953;45.508;-122.806;2024-02-23T02:32:53;101693.16;;;24.40;38.32
50852;BME280;43953;45.508;-122.806;2024-02-23T02:33:25;101695.91;;;24.40;38.36
50852;BME280;43953;45.508;-122.806;2024-02-23T02:33:56;101695.06;;;24.39;38.29
50852;BME280;43953;45.508;-122.806;2024-02-23T02:34:28;101697.00;;;24.39;38.13
50852;BME280;43953;45.508;-122.806;2024-02-23T02:35:00;101696.19;;;24.38;38.20
50852;BME280;43953;45.508;-122.806;2024-02-23T02:35:32;101693.44;;;24.38;38.24
50852;BME280;43953;45.508;-122.806;2024-02-23T02:36:04;101697.28;;;24.37;38.20
50852;BME280;43953;45.508;-122.806;2024-02-23T02:36:35;101693.69;;;24.37;38.32
50852;BME280;43953;45.508;-122.806;2024-02-23T02:37:07;101690.13;;;24.36;38.38
50852;BME280;43953;45.508;-122.806;2024-02-23T02:37:39;101697.28;;;24.37;38.30
50852;BME280;43953;45.508;-122.806;2024-02-23T02:38:11;101696.44;;;24.37;38.41
50852;BME280;43953;45.508;-122.806;2024-02-23T02:38:43;101696.44;;;24.37;38.42
50852;BME280;43953;45.508;-122.806;2024-02-23T02:39:15;101698.38;;;24.36;38.35
50852;BME280;43953;45.508;-122.806;2024-02-23T02:39:46;101693.69;;;24.37;38.30
50852;BME280;43953;45.508;-122.806;2024-02-23T02:40:18;101701.13;;;24.36;38.28
50852;BME280;43953;45.508;-122.806;2024-02-23T02:40:50;101703.88;;;24.36;38.41
50852;BME280;43953;45.508;-122.806;2024-02-23T02:41:24;101695.63;;;24.36;38.38
50852;BME280;43953;45.508;-122.806;2024-02-23T02:41:59;101703.06;;;24.36;38.42